sensor_id;sensor_type;location;lat;lon;timestamp;P1;durP1;ratioP1;P2;durP2;ratioP2
5199;SDS011;2619;47.868;11.892;2024-01-16T00:00:49;5.67;;;2.80;;
5199;SDS011;2619;47.868;11.892;2024-01-16T00:03:15;7.67;;;2.90;;
5199;SDS011;2619;47.868;11.892;2024-01-16T00:05:41;6.57;;;3.20;;
5199;SDS011;2619;47.868;11.892;2024-01-16T00:08:06;5.40;;;3.20;;
5199;SDS011;2619;47.868;11.892;2024-01-16T00:10:32;11.30;;;3.20;;
5199;SDS011;2619;47.868;11.892;2024-01-16T00:12:57;7.57;;;2.90;;
5199;SDS011;2619;47.868;11.892;2024-01-16T00:15:23;5.17;;;2.47;;
5199;SDS011;2619;47.868;11.892;2024-01-16T00:17:49;5.37;;;2.70;;
5199;SDS011;2619;47.868;11.892;2024-01-16T00:20:14;4.67;;;2.70;;
5199;SDS011;2619;47.868;11.892;2024-01-16T00:22:40;5.07;;;3.00;;
5199;SDS011;2619;47.868;11.892;2024-01-16T00:25:05;4.90;;;2.77;;
5199;SDS011;2619;47.868;11.892;2024-01-16T00:27:31;4.93;;;2.00;;
5199;SDS011;2619;47.868;11.892;2024-01-16T00:29:57;5.20;;;2.80;;
5199;SDS011;2619;47.868;11.892;2024-01-16T00:32:22;7.93;;;3.33;;
5199;SDS011;2619;47.868;11.892;2024-01-16T00:34:48;4.90;;;2.53;;
5199;SDS011;2619;47.868;11.892;2024-01-16T00:37:14;4.70;;;2.50;;
5199;SDS011;2619;47.868;11.892;2024-01-16T00:39:39;5.40;;;3.10;;
5199;SDS011;2619;47.868;11.892;2024-01-16T00:42:05;4.10;;;2.60;;
5199;SDS011;2619;47.868;11.892;2024-01-16T00:44:31;5.73;;;2.73;;
5199;SDS011;2619;47.868;11.892;2024-01-16T00:46:56;7.40;;;3.00;;
5199;SDS011;2619;47.868;11.892;2024-01-16T00:49:22;6.50;;;3.10;;
5199;SDS011;2619;47.868;11.892;2024-01-16T00:51:47;6.60;;;3.60;;
5199;SDS011;2619;47.868;11.892;2024-01-16T00:54:13;4.50;;;2.93;;
5199;SDS011;2619;47.868;11.892;2024-01-16T00:56:41;3.60;;;2.50;;
5199;SDS011;2619;47.868;11.892;2024-01-16T00:59:07;5.10;;;2.57;;
5199;SDS011;2619;47.868;11.892;2024-01-16T01:01:32;5.10;;;2.47;;
5199;SDS011;2619;47.868;11.892;2024-01-16T01:03:58;5.67;;;2.97;;
5199;SDS011;2619;47.868;11.892;2024-01-16T01:06:23;4.23;;;2.17;;
5199;SDS011;2619;47.868;11.892;2024-01-16T01:08:49;5.80;;;2.93;;
5199;SDS011;2619;47.868;11.892;2024-01-16T01:11:14;4.30;;;2.70;;
5199;SDS011;2619;47.868;11.892;2024-01-16T01:13:40;5.93;;;2.80;;
5199;SDS011;2619;47.868;11.892;2024-01-16T01:16:06;4.07;;;2.50;;
5199;SDS011;2619;47.868;11.892;2024-01-16T01:18:31;6.67;;;4.33;;
5199;SDS011;2619;47.868;11.892;2024-01-16T01:20:57;7.63;;;2.60;;
5199;SDS011;2619;47.868;11.892;2024-01-16T01:23:22;4.17;;;2.53;;
5199;SDS011;2619;47.868;11.892;2024-01-16T01:25:48;5.57;;;2.60;;
5199;SDS011;2619;47.868;11.892;2024-01-16T01:28:13;4.93;;;2.80;;
5199;SDS011;2619;47.868;11.892;2024-01-16T01:30:39;6.10;;;2.40;;
5199;SDS011;2619;47.868;11.892;2024-01-16T01:33:05;5.23;;;2.53;;
5199;SDS011;2619;47.868;11.892;2024-01-16T01:35:30;4.10;;;2.63;;
5199;SDS011;2619;47.868;11.892;2024-01-16T01:37:56;5.67;;;2.93;;
5199;SDS011;2619;47.868;11.892;2024-01-16T01:40:22;5.30;;;2.40;;
5199;SDS011;2619;47.868;11.892;2024-01-16T01:42:47;4.67;;;2.40;;
5199;SDS011;2619;47.868;11.892;2024-01-16T01:45:13;7.37;;;2.77;;
5199;SDS011;2619;47.868;11.892;2024-01-16T01:47:39;7.93;;;3.23;;
5199;SDS011;2619;47.868;11.892;2024-01-16T01:50:06;4.80;;;2.90;;
5199;SDS011;2619;47.868;11.892;2024-01-16T01:52:33;9.27;;;3.67;;
5199;SDS011;2619;47.868;11.892;2024-01-16T01:54:59;5.40;;;2.70;;
5199;SDS011;2619;47.868;11.892;2024-01-16T01:57:28;4.07;;;2.93;;
5199;SDS011;2619;47.868;11.892;2024-01-16T01:59:54;5.23;;;2.77;;
5199;SDS011;2619;47.868;11.892;2024-01-16T02:02:20;5.00;;;2.97;;
5199;SDS011;2619;47.868;11.892;2024-01-16T02:04:47;7.40;;;2.90;;
5199;SDS011;2619;47.868;11.892;2024-01-16T02:07:13;5.00;;;3.23;;
5199;SDS011;2619;47.868;11.892;2024-01-16T02:09:40;4.60;;;2.97;;
5199;SDS011;2619;47.868;11.892;2024-01-16T02:12:06;5.93;;;2.90;;
5199;SDS011;2619;47.868;11.892;2024-01-16T02:14:32;5.47;;;3.00;;
5199;SDS011;2619;47.868;11.892;2024-01-16T02:16:57;4.67;;;2.90;;
5199;SDS011;2619;47.868;11.892;2024-01-16T02:19:23;5.57;;;3.00;;
5199;SDS011;2619;47.868;11.892;2024-01-16T02:21:51;6.80;;;2.57;;
5199;SDS011;2619;47.868;11.892;2024-01-16T02:24:19;8.73;;;3.03;;
5199;SDS011;2619;47.868;11.892;2024-01-16T02:26:46;5.40;;;2.97;;
5199;SDS011;2619;47.868;11.892;2024-01-16T02:29:12;5.43;;;3.00;;
5199;SDS011;2619;47.868;11.892;2024-01-16T02:31:37;6.07;;;3.90;;
5199;SDS011;2619;47.868;11.892;2024-01-16T02:34:03;6.07;;;3.10;;
5199;SDS011;2619;47.868;11.892;2024-01-16T02:36:32;4.70;;;2.50;;
5199;SDS011;2619;47.868;11.892;2024-01-16T02:38:58;5.60;;;2.87;;
5199;SDS011;2619;47.868;11.892;2024-01-16T02:41:24;4.40;;;2.63;;
5199;SDS011;2619;47.868;11.892;2024-01-16T02:43:50;7.20;;;4.00;;
5199;SDS011;2619;47.868;11.892;2024-01-16T02:46:15;6.80;;;2.90;;
5199;SDS011;2619;47.868;11.892;2024-01-16T02:48:41;5.90;;;3.20;;
5199;SDS011;2619;47.868;11.892;2024-01-16T02:51:10;6.07;;;2.97;;
5199;SDS011;2619;47.868;11.892;2024-01-16T02:53:36;7.20;;;3.70;;
5199;SDS011;2619;47.868;11.892;2024-01-16T02:56:02;4.70;;;3.00;;
5199;SDS011;2619;47.868;11.892;2024-01-16T02:58:27;5.80;;;3.70;;
5199;SDS011;2619;47.868;11.892;2024-01-16T03:00:54;5.10;;;2.83;;
5199;SDS011;2619;47.868;11.892;2024-01-16T03:03:19;4.77;;;2.93;;
5199;SDS011;2619;47.868;11.892;2024-01-16T03:05:46;5.93;;;3.00;;
5199;SDS011;2619;47.868;11.892;2024-01-16T03:08:12;8.13;;;4.20;;
5199;SDS011;2619;47.868;11.892;2024-01-16T03:10:37;6.07;;;3.60;;
5199;SDS011;2619;47.868;11.892;2024-01-16T03:13:03;7.27;;;3.20;;
5199;SDS011;2619;47.868;11.892;2024-01-16T03:15:29;5.43;;;2.90;;
5199;SDS011;2619;47.868;11.892;2024-01-16T03:17:56;7.60;;;3.73;;
5199;SDS011;2619;47.868;11.892;2024-01-16T03:20:22;4.93;;;3.50;;
5199;SDS011;2619;47.868;11.892;2024-01-16T03:22:48;6.17;;;3.53;;
5199;SDS011;2619;47.868;11.892;2024-01-16T03:25:14;5.63;;;2.77;;
5199;SDS011;2619;47.868;11.892;2024-01-16T03:27:39;6.70;;;3.60;;
5199;SDS011;2619;47.868;11.892;2024-01-16T03:30:05;8.67;;;3.33;;
5199;SDS011;2619;47.868;11.892;2024-01-16T03:32:31;5.57;;;2.87;;
5199;SDS011;2619;47.868;11.892;2024-01-16T03:34:57;6.63;;;4.00;;
5199;SDS011;2619;47.868;11.892;2024-01-16T03:37:22;5.23;;;3.10;;
5199;SDS011;2619;47.868;11.892;2024-01-16T03:39:48;5.80;;;3.10;;
5199;SDS011;2619;47.868;11.892;2024-01-16T03:42:15;5.80;;;3.13;;
5199;SDS011;2619;47.868;11.892;2024-01-16T03:44:40;7.93;;;3.40;;
5199;SDS011;2619;47.868;11.892;2024-01-16T03:47:06;6.60;;;3.67;;
5199;SDS011;2619;47.868;11.892;2024-01-16T03:49:32;7.50;;;3.80;;
5199;SDS011;2619;47.868;11.892;2024-01-16T03:51:58;8.43;;;3.77;;
5199;SDS011;2619;47.868;11.892;2024-01-16T03:54:24;7.23;;;3.93;;
5199;SDS011;2619;47.868;11.892;2024-01-16T03:56:50;5.70;;;3.10;;
5199;SDS011;2619;47.868;11.892;2024-01-16T03:59:16;6.87;;;3.73;;
5199;SDS011;2619;47.868;11.892;2024-01-16T04:01:41;10.03;;;4.00;;
5199;SDS011;2619;47.868;11.892;2024-01-16T04:04:09;6.13;;;3.37;;
5199;SDS011;2619;47.868;11.892;2024-01-16T04:06:35;7.53;;;3.80;;
5199;SDS011;2619;47.868;11.892;2024-01-16T04:09:01;6.30;;;3.17;;
5199;SDS011;2619;47.868;11.892;2024-01-16T04:11:27;7.83;;;3.17;;
5199;SDS011;2619;47.868;11.892;2024-01-16T04:13:53;6.03;;;3.27;;
5199;SDS011;2619;47.868;11.892;2024-01-16T04:16:19;5.10;;;3.00;;
5199;SDS011;2619;47.868;11.892;2024-01-16T04:18:44;7.60;;;3.73;;
5199;SDS011;2619;47.868;11.892;2024-01-16T04:21:10;6.30;;;3.23;;
5199;SDS011;2619;47.868;11.892;2024-01-16T04:23:36;9.30;;;4.23;;
5199;SDS011;2619;47.868;11.892;2024-01-16T04:26:02;7.73;;;3.33;;
5199;SDS011;2619;47.868;11.892;2024-01-16T04:28:27;12.03;;;4.53;;
5199;SDS011;2619;47.868;11.892;2024-01-16T04:30:53;6.90;;;3.60;;
5199;SDS011;2619;47.868;11.892;2024-01-16T04:33:19;9.07;;;3.70;;
5199;SDS011;2619;47.868;11.892;2024-01-16T04:35:44;12.23;;;3.70;;
5199;SDS011;2619;47.868;11.892;2024-01-16T04:38:10;6.63;;;3.80;;
5199;SDS011;2619;47.868;11.892;2024-01-16T04:40:36;7.07;;;4.47;;
5199;SDS011;2619;47.868;11.892;2024-01-16T04:43:01;8.57;;;4.50;;
5199;SDS011;2619;47.868;11.892;2024-01-16T04:45:27;7.30;;;4.17;;
5199;SDS011;2619;47.868;11.892;2024-01-16T04:47:53;6.03;;;3.47;;
5199;SDS011;2619;47.868;11.892;2024-01-16T04:50:19;9.73;;;4.33;;
5199;SDS011;2619;47.868;11.892;2024-01-16T04:52:44;5.90;;;3.13;;
5199;SDS011;2619;47.868;11.892;2024-01-16T04:55:10;6.03;;;3.47;;
5199;SDS011;2619;47.868;11.892;2024-01-16T04:57:36;7.13;;;4.00;;
5199;SDS011;2619;47.868;11.892;2024-01-16T05:00:01;8.97;;;4.20;;
5199;SDS011;2619;47.868;11.892;2024-01-16T05:02:31;8.33;;;4.00;;
5199;SDS011;2619;47.868;11.892;2024-01-16T05:04:57;7.37;;;3.60;;
5199;SDS011;2619;47.868;11.892;2024-01-16T05:07:23;5.07;;;3.20;;
5199;SDS011;2619;47.868;11.892;2024-01-16T05:09:49;6.47;;;3.60;;
5199;SDS011;2619;47.868;11.892;2024-01-16T05:12:14;8.50;;;3.70;;
5199;SDS011;2619;47.868;11.892;2024-01-16T05:14:40;9.10;;;4.30;;
5199;SDS011;2619;47.868;11.892;2024-01-16T05:17:06;8.03;;;3.50;;
5199;SDS011;2619;47.868;11.892;2024-01-16T05:19:31;5.23;;;3.90;;
5199;SDS011;2619;47.868;11.892;2024-01-16T05:21:57;8.90;;;3.50;;
5199;SDS011;2619;47.868;11.892;2024-01-16T05:24:22;8.53;;;3.53;;
5199;SDS011;2619;47.868;11.892;2024-01-16T05:26:48;6.50;;;3.60;;
5199;SDS011;2619;47.868;11.892;2024-01-16T05:29:14;6.57;;;3.73;;
5199;SDS011;2619;47.868;11.892;2024-01-16T05:31:43;7.80;;;3.83;;
5199;SDS011;2619;47.868;11.892;2024-01-16T05:34:09;8.90;;;4.30;;
5199;SDS011;2619;47.868;11.892;2024-01-16T05:36:35;8.33;;;3.90;;
5199;SDS011;2619;47.868;11.892;2024-01-16T05:39:02;5.83;;;3.37;;
5199;SDS011;2619;47.868;11.892;2024-01-16T05:41:31;8.83;;;4.00;;
5199;SDS011;2619;47.868;11.892;2024-01-16T05:43:58;7.20;;;3.87;;
5199;SDS011;2619;47.868;11.892;2024-01-16T05:46:24;7.00;;;3.37;;
5199;SDS011;2619;47.868;11.892;2024-01-16T05:48:49;10.17;;;4.20;;
5199;SDS011;2619;47.868;11.892;2024-01-16T05:51:15;5.90;;;3.50;;
5199;SDS011;2619;47.868;11.892;2024-01-16T05:53:40;5.47;;;3.27;;
5199;SDS011;2619;47.868;11.892;2024-01-16T05:56:06;9.60;;;3.87;;
5199;SDS011;2619;47.868;11.892;2024-01-16T05:58:32;9.47;;;3.63;;
5199;SDS011;2619;47.868;11.892;2024-01-16T06:01:03;6.40;;;3.73;;
5199;SDS011;2619;47.868;11.892;2024-01-16T06:03:32;6.35;;;3.90;;
5199;SDS011;2619;47.868;11.892;2024-01-16T06:05:58;7.03;;;3.50;;
5199;SDS011;2619;47.868;11.892;2024-01-16T06:08:23;6.03;;;3.23;;
5199;SDS011;2619;47.868;11.892;2024-01-16T06:10:49;7.70;;;3.65;;
5199;SDS011;2619;47.868;11.892;2024-01-16T06:13:16;9.00;;;4.83;;
5199;SDS011;2619;47.868;11.892;2024-01-16T06:15:43;6.60;;;3.93;;
5199;SDS011;2619;47.868;11.892;2024-01-16T06:18:09;6.55;;;4.00;;
5199;SDS011;2619;47.868;11.892;2024-01-16T06:20:35;8.90;;;3.90;;
5199;SDS011;2619;47.868;11.892;2024-01-16T06:23:00;11.13;;;3.40;;
5199;SDS011;2619;47.868;11.892;2024-01-16T06:25:26;9.33;;;3.70;;
5199;SDS011;2619;47.868;11.892;2024-01-16T06:27:51;7.43;;;3.30;;
5199;SDS011;2619;47.868;11.892;2024-01-16T06:30:17;7.00;;;3.73;;
5199;SDS011;2619;47.868;11.892;2024-01-16T06:32:43;6.63;;;3.07;;
5199;SDS011;2619;47.868;11.892;2024-01-16T06:35:08;5.33;;;3.07;;
5199;SDS011;2619;47.868;11.892;2024-01-16T06:37:34;6.73;;;3.83;;
5199;SDS011;2619;47.868;11.892;2024-01-16T06:39:59;6.20;;;3.30;;
5199;SDS011;2619;47.868;11.892;2024-01-16T06:42:25;5.67;;;2.90;;
5199;SDS011;2619;47.868;11.892;2024-01-16T06:44:50;5.07;;;2.80;;
5199;SDS011;2619;47.868;11.892;2024-01-16T06:47:16;7.33;;;3.30;;
5199;SDS011;2619;47.868;11.892;2024-01-16T06:49:41;5.03;;;2.80;;
5199;SDS011;2619;47.868;11.892;2024-01-16T06:52:08;7.37;;;2.93;;
5199;SDS011;2619;47.868;11.892;2024-01-16T06:54:34;5.80;;;3.10;;
5199;SDS011;2619;47.868;11.892;2024-01-16T06:57:00;6.30;;;2.60;;
5199;SDS011;2619;47.868;11.892;2024-01-16T06:59:25;6.20;;;3.20;;
5199;SDS011;2619;47.868;11.892;2024-01-16T07:01:51;7.43;;;2.90;;
5199;SDS011;2619;47.868;11.892;2024-01-16T07:04:16;6.67;;;3.53;;
5199;SDS011;2619;47.868;11.892;2024-01-16T07:06:42;7.47;;;3.40;;
5199;SDS011;2619;47.868;11.892;2024-01-16T07:09:08;5.50;;;3.00;;
5199;SDS011;2619;47.868;11.892;2024-01-16T07:11:37;7.97;;;3.10;;
5199;SDS011;2619;47.868;11.892;2024-01-16T07:14:07;7.00;;;3.20;;
5199;SDS011;2619;47.868;11.892;2024-01-16T07:16:36;5.93;;;3.03;;
5199;SDS011;2619;47.868;11.892;2024-01-16T07:19:02;7.40;;;4.90;;
5199;SDS011;2619;47.868;11.892;2024-01-16T07:21:28;9.23;;;3.77;;
5199;SDS011;2619;47.868;11.892;2024-01-16T07:23:54;7.43;;;4.20;;
5199;SDS011;2619;47.868;11.892;2024-01-16T07:26:19;8.40;;;4.40;;
5199;SDS011;2619;47.868;11.892;2024-01-16T07:28:45;10.50;;;5.50;;
5199;SDS011;2619;47.868;11.892;2024-01-16T07:31:13;15.07;;;7.63;;
5199;SDS011;2619;47.868;11.892;2024-01-16T07:33:38;12.67;;;7.70;;
5199;SDS011;2619;47.868;11.892;2024-01-16T07:36:05;13.43;;;7.93;;
5199;SDS011;2619;47.868;11.892;2024-01-16T07:38:31;12.83;;;7.40;;
5199;SDS011;2619;47.868;11.892;2024-01-16T07:40:57;11.43;;;7.90;;
5199;SDS011;2619;47.868;11.892;2024-01-16T07:43:22;10.00;;;5.83;;
5199;SDS011;2619;47.868;11.892;2024-01-16T07:45:48;11.90;;;7.00;;
5199;SDS011;2619;47.868;11.892;2024-01-16T07:48:14;11.87;;;6.83;;
5199;SDS011;2619;47.868;11.892;2024-01-16T07:50:40;17.30;;;7.80;;
5199;SDS011;2619;47.868;11.892;2024-01-16T07:53:05;10.30;;;6.23;;
5199;SDS011;2619;47.868;11.892;2024-01-16T07:55:31;14.60;;;6.90;;
5199;SDS011;2619;47.868;11.892;2024-01-16T07:57:56;9.43;;;6.00;;
5199;SDS011;2619;47.868;11.892;2024-01-16T08:00:22;12.87;;;6.57;;
5199;SDS011;2619;47.868;11.892;2024-01-16T08:02:48;15.03;;;7.50;;
5199;SDS011;2619;47.868;11.892;2024-01-16T08:05:14;9.43;;;6.47;;
5199;SDS011;2619;47.868;11.892;2024-01-16T08:07:41;10.40;;;6.47;;
5199;SDS011;2619;47.868;11.892;2024-01-16T08:10:08;12.23;;;7.30;;
5199;SDS011;2619;47.868;11.892;2024-01-16T08:12:34;12.03;;;7.53;;
5199;SDS011;2619;47.868;11.892;2024-01-16T08:14:59;12.27;;;7.27;;
5199;SDS011;2619;47.868;11.892;2024-01-16T08:17:25;10.90;;;6.90;;
5199;SDS011;2619;47.868;11.892;2024-01-16T08:19:50;11.43;;;5.80;;
5199;SDS011;2619;47.868;11.892;2024-01-16T08:22:16;7.87;;;5.50;;
5199;SDS011;2619;47.868;11.892;2024-01-16T08:24:41;9.90;;;5.83;;
5199;SDS011;2619;47.868;11.892;2024-01-16T08:27:07;10.53;;;6.40;;
5199;SDS011;2619;47.868;11.892;2024-01-16T08:29:33;11.73;;;6.37;;
5199;SDS011;2619;47.868;11.892;2024-01-16T08:31:59;7.90;;;5.97;;
5199;SDS011;2619;47.868;11.892;2024-01-16T08:34:24;12.13;;;6.60;;
5199;SDS011;2619;47.868;11.892;2024-01-16T08:36:50;9.73;;;6.03;;
5199;SDS011;2619;47.868;11.892;2024-01-16T08:39:15;10.03;;;6.47;;
5199;SDS011;2619;47.868;11.892;2024-01-16T08:41:41;11.80;;;6.40;;
5199;SDS011;2619;47.868;11.892;2024-01-16T08:44:07;11.17;;;6.20;;
5199;SDS011;2619;47.868;11.892;2024-01-16T08:46:32;9.80;;;7.23;;
5199;SDS011;2619;47.868;11.892;2024-01-16T08:48:58;15.10;;;8.13;;
5199;SDS011;2619;47.868;11.892;2024-01-16T08:51:23;14.80;;;8.67;;
5199;SDS011;2619;47.868;11.892;2024-01-16T08:53:51;12.13;;;7.87;;
5199;SDS011;2619;47.868;11.892;2024-01-16T08:56:16;13.67;;;9.20;;
5199;SDS011;2619;47.868;11.892;2024-01-16T08:58:42;12.63;;;9.10;;
5199;SDS011;2619;47.868;11.892;2024-01-16T09:01:08;14.73;;;7.97;;
5199;SDS011;2619;47.868;11.892;2024-01-16T09:03:35;19.23;;;10.00;;
5199;SDS011;2619;47.868;11.892;2024-01-16T09:06:01;15.97;;;9.30;;
5199;SDS011;2619;47.868;11.892;2024-01-16T09:08:27;14.50;;;8.80;;
5199;SDS011;2619;47.868;11.892;2024-01-16T09:10:53;9.63;;;6.83;;
5199;SDS011;2619;47.868;11.892;2024-01-16T09:13:19;12.70;;;8.00;;
5199;SDS011;2619;47.868;11.892;2024-01-16T09:15:46;12.80;;;8.47;;
5199;SDS011;2619;47.868;11.892;2024-01-16T09:18:13;10.33;;;7.90;;
5199;SDS011;2619;47.868;11.892;2024-01-16T09:20:39;10.83;;;7.23;;
5199;SDS011;2619;47.868;11.892;2024-01-16T09:23:04;11.07;;;6.87;;
5199;SDS011;2619;47.868;11.892;2024-01-16T09:25:30;9.90;;;6.23;;
5199;SDS011;2619;47.868;11.892;2024-01-16T09:27:55;13.63;;;7.03;;
5199;SDS011;2619;47.868;11.892;2024-01-16T09:30:21;9.63;;;6.80;;
5199;SDS011;2619;47.868;11.892;2024-01-16T09:32:48;9.77;;;7.27;;
5199;SDS011;2619;47.868;11.892;2024-01-16T09:35:14;14.83;;;8.70;;
5199;SDS011;2619;47.868;11.892;2024-01-16T09:37:39;11.93;;;7.30;;
5199;SDS011;2619;47.868;11.892;2024-01-16T09:40:05;15.47;;;8.13;;
5199;SDS011;2619;47.868;11.892;2024-01-16T09:42:32;13.93;;;9.93;;
5199;SDS011;2619;47.868;11.892;2024-01-16T09:44:57;15.63;;;10.10;;
5199;SDS011;2619;47.868;11.892;2024-01-16T09:47:27;15.97;;;10.37;;
5199;SDS011;2619;47.868;11.892;2024-01-16T09:49:56;13.47;;;8.60;;
5199;SDS011;2619;47.868;11.892;2024-01-16T09:52:24;10.70;;;7.63;;
5199;SDS011;2619;47.868;11.892;2024-01-16T09:54:50;10.10;;;7.07;;
5199;SDS011;2619;47.868;11.892;2024-01-16T09:57:15;10.97;;;6.80;;
5199;SDS011;2619;47.868;11.892;2024-01-16T09:59:47;9.17;;;6.80;;
5199;SDS011;2619;47.868;11.892;2024-01-16T10:02:13;11.13;;;6.33;;
5199;SDS011;2619;47.868;11.892;2024-01-16T10:04:40;11.20;;;6.40;;
5199;SDS011;2619;47.868;11.892;2024-01-16T10:07:06;11.67;;;7.40;;
5199;SDS011;2619;47.868;11.892;2024-01-16T10:09:34;8.50;;;5.90;;
5199;SDS011;2619;47.868;11.892;2024-01-16T10:12:00;9.80;;;6.23;;
5199;SDS011;2619;47.868;11.892;2024-01-16T10:14:26;10.93;;;7.13;;
5199;SDS011;2619;47.868;11.892;2024-01-16T10:19:28;12.53;;;6.70;;
5199;SDS011;2619;47.868;11.892;2024-01-16T10:22:01;9.53;;;6.57;;
5199;SDS011;2619;47.868;11.892;2024-01-16T10:24:28;11.77;;;7.20;;
5199;SDS011;2619;47.868;11.892;2024-01-16T10:27:00;15.13;;;9.17;;
5199;SDS011;2619;47.868;11.892;2024-01-16T10:29:28;19.93;;;10.50;;
5199;SDS011;2619;47.868;11.892;2024-01-16T10:31:55;13.97;;;9.70;;
5199;SDS011;2619;47.868;11.892;2024-01-16T10:34:21;18.30;;;11.10;;
5199;SDS011;2619;47.868;11.892;2024-01-16T10:36:48;15.17;;;10.87;;
5199;SDS011;2619;47.868;11.892;2024-01-16T10:39:15;12.87;;;10.63;;
5199;SDS011;2619;47.868;11.892;2024-01-16T10:41:41;12.17;;;8.93;;
5199;SDS011;2619;47.868;11.892;2024-01-16T10:44:07;13.70;;;8.57;;
5199;SDS011;2619;47.868;11.892;2024-01-16T10:46:33;15.97;;;8.33;;
5199;SDS011;2619;47.868;11.892;2024-01-16T10:49:01;12.83;;;8.47;;
5199;SDS011;2619;47.868;11.892;2024-01-16T10:51:27;12.10;;;7.90;;
5199;SDS011;2619;47.868;11.892;2024-01-16T10:54:04;12.60;;;8.50;;
5199;SDS011;2619;47.868;11.892;2024-01-16T10:56:31;14.33;;;8.10;;
5199;SDS011;2619;47.868;11.892;2024-01-16T10:59:00;11.70;;;7.80;;
5199;SDS011;2619;47.868;11.892;2024-01-16T11:01:47;10.37;;;7.20;;
5199;SDS011;2619;47.868;11.892;2024-01-16T11:04:16;11.27;;;7.60;;
5199;SDS011;2619;47.868;11.892;2024-01-16T11:06:43;11.27;;;7.67;;
5199;SDS011;2619;47.868;11.892;2024-01-16T11:09:09;9.00;;;6.50;;
5199;SDS011;2619;47.868;11.892;2024-01-16T11:11:37;9.13;;;5.90;;
5199;SDS011;2619;47.868;11.892;2024-01-16T11:14:04;12.57;;;6.87;;
5199;SDS011;2619;47.868;11.892;2024-01-16T11:16:31;9.60;;;6.23;;
5199;SDS011;2619;47.868;11.892;2024-01-16T11:18:57;9.77;;;6.20;;
5199;SDS011;2619;47.868;11.892;2024-01-16T11:21:23;8.67;;;5.70;;
5199;SDS011;2619;47.868;11.892;2024-01-16T11:23:50;9.90;;;6.20;;
5199;SDS011;2619;47.868;11.892;2024-01-16T11:26:26;7.03;;;4.70;;
5199;SDS011;2619;47.868;11.892;2024-01-16T11:28:59;9.53;;;6.10;;
5199;SDS011;2619;47.868;11.892;2024-01-16T11:31:29;9.80;;;7.00;;
5199;SDS011;2619;47.868;11.892;2024-01-16T11:33:56;10.63;;;7.33;;
5199;SDS011;2619;47.868;11.892;2024-01-16T11:39:17;16.03;;;10.33;;
5199;SDS011;2619;47.868;11.892;2024-01-16T11:41:48;14.13;;;9.57;;
5199;SDS011;2619;47.868;11.892;2024-01-16T11:47:02;12.43;;;8.60;;
5199;SDS011;2619;47.868;11.892;2024-01-16T11:49:29;14.20;;;7.47;;
5199;SDS011;2619;47.868;11.892;2024-01-16T11:51:56;15.27;;;7.70;;
5199;SDS011;2619;47.868;11.892;2024-01-16T11:54:22;14.40;;;8.10;;
5199;SDS011;2619;47.868;11.892;2024-01-16T12:02:25;10.53;;;7.50;;
5199;SDS011;2619;47.868;11.892;2024-01-16T12:04:54;12.20;;;6.57;;
5199;SDS011;2619;47.868;11.892;2024-01-16T12:07:28;7.97;;;6.10;;
5199;SDS011;2619;47.868;11.892;2024-01-16T12:09:58;12.00;;;7.37;;
5199;SDS011;2619;47.868;11.892;2024-01-16T12:12:25;13.10;;;7.60;;
5199;SDS011;2619;47.868;11.892;2024-01-16T12:14:51;10.67;;;6.47;;
5199;SDS011;2619;47.868;11.892;2024-01-16T12:17:19;10.80;;;7.83;;
5199;SDS011;2619;47.868;11.892;2024-01-16T12:19:45;9.93;;;6.97;;
5199;SDS011;2619;47.868;11.892;2024-01-16T12:22:14;11.73;;;7.43;;
5199;SDS011;2619;47.868;11.892;2024-01-16T12:24:40;12.53;;;8.30;;
5199;SDS011;2619;47.868;11.892;2024-01-16T12:27:06;15.60;;;9.70;;
5199;SDS011;2619;47.868;11.892;2024-01-16T12:29:33;13.23;;;8.77;;
5199;SDS011;2619;47.868;11.892;2024-01-16T12:32:06;12.27;;;8.60;;
5199;SDS011;2619;47.868;11.892;2024-01-16T12:34:38;14.27;;;8.30;;
5199;SDS011;2619;47.868;11.892;2024-01-16T12:37:10;10.10;;;6.67;;
5199;SDS011;2619;47.868;11.892;2024-01-16T12:39:36;10.60;;;7.47;;
5199;SDS011;2619;47.868;11.892;2024-01-16T12:42:02;11.40;;;7.20;;
5199;SDS011;2619;47.868;11.892;2024-01-16T12:44:28;10.40;;;8.03;;
5199;SDS011;2619;47.868;11.892;2024-01-16T12:46:54;11.90;;;8.30;;
5199;SDS011;2619;47.868;11.892;2024-01-16T12:49:21;10.20;;;7.53;;
5199;SDS011;2619;47.868;11.892;2024-01-16T12:51:48;10.47;;;6.80;;
5199;SDS011;2619;47.868;11.892;2024-01-16T12:54:15;9.93;;;7.10;;
5199;SDS011;2619;47.868;11.892;2024-01-16T12:56:43;13.13;;;7.27;;
5199;SDS011;2619;47.868;11.892;2024-01-16T12:59:10;11.83;;;7.20;;
5199;SDS011;2619;47.868;11.892;2024-01-16T13:01:38;13.50;;;7.40;;
5199;SDS011;2619;47.868;11.892;2024-01-16T13:04:07;9.60;;;6.80;;
5199;SDS011;2619;47.868;11.892;2024-01-16T13:06:33;9.70;;;7.07;;
5199;SDS011;2619;47.868;11.892;2024-01-16T13:09:11;12.50;;;7.70;;
5199;SDS011;2619;47.868;11.892;2024-01-16T13:11:53;9.53;;;6.43;;
5199;SDS011;2619;47.868;11.892;2024-01-16T13:14:20;9.70;;;5.97;;
5199;SDS011;2619;47.868;11.892;2024-01-16T13:16:46;9.77;;;6.23;;
5199;SDS011;2619;47.868;11.892;2024-01-16T13:19:16;10.67;;;7.07;;
5199;SDS011;2619;47.868;11.892;2024-01-16T13:21:45;12.10;;;7.10;;
5199;SDS011;2619;47.868;11.892;2024-01-16T13:24:11;13.47;;;6.80;;
5199;SDS011;2619;47.868;11.892;2024-01-16T13:26:37;11.40;;;7.47;;
5199;SDS011;2619;47.868;11.892;2024-01-16T13:29:03;12.30;;;7.30;;
5199;SDS011;2619;47.868;11.892;2024-01-16T13:31:31;12.37;;;6.70;;
5199;SDS011;2619;47.868;11.892;2024-01-16T13:33:57;9.03;;;6.23;;
5199;SDS011;2619;47.868;11.892;2024-01-16T13:36:22;8.30;;;6.13;;
5199;SDS011;2619;47.868;11.892;2024-01-16T13:38:48;7.77;;;5.73;;
5199;SDS011;2619;47.868;11.892;2024-01-16T13:41:14;7.23;;;5.10;;
5199;SDS011;2619;47.868;11.892;2024-01-16T13:43:40;7.47;;;5.33;;
5199;SDS011;2619;47.868;11.892;2024-01-16T13:46:06;8.07;;;5.60;;
5199;SDS011;2619;47.868;11.892;2024-01-16T13:48:33;9.17;;;6.37;;
5199;SDS011;2619;47.868;11.892;2024-01-16T13:50:59;8.33;;;5.60;;
5199;SDS011;2619;47.868;11.892;2024-01-16T13:53:25;8.57;;;5.50;;
5199;SDS011;2619;47.868;11.892;2024-01-16T13:55:51;7.73;;;6.00;;
5199;SDS011;2619;47.868;11.892;2024-01-16T13:58:16;11.00;;;6.37;;
5199;SDS011;2619;47.868;11.892;2024-01-16T14:00:43;8.80;;;5.40;;
5199;SDS011;2619;47.868;11.892;2024-01-16T14:03:09;10.20;;;6.23;;
5199;SDS011;2619;47.868;11.892;2024-01-16T14:05:34;9.57;;;6.57;;
5199;SDS011;2619;47.868;11.892;2024-01-16T14:08:01;10.17;;;7.27;;
5199;SDS011;2619;47.868;11.892;2024-01-16T14:10:27;10.70;;;7.20;;
5199;SDS011;2619;47.868;11.892;2024-01-16T14:12:52;12.70;;;7.30;;
5199;SDS011;2619;47.868;11.892;2024-01-16T14:15:19;11.87;;;6.80;;
5199;SDS011;2619;47.868;11.892;2024-01-16T14:17:49;9.20;;;6.20;;
5199;SDS011;2619;47.868;11.892;2024-01-16T14:20:16;8.83;;;5.67;;
5199;SDS011;2619;47.868;11.892;2024-01-16T14:22:43;9.20;;;6.17;;
5199;SDS011;2619;47.868;11.892;2024-01-16T14:25:10;12.43;;;7.10;;
5199;SDS011;2619;47.868;11.892;2024-01-16T14:27:43;8.60;;;6.00;;
5199;SDS011;2619;47.868;11.892;2024-01-16T14:30:11;10.30;;;6.80;;
5199;SDS011;2619;47.868;11.892;2024-01-16T14:32:39;39.33;;;22.50;;
5199;SDS011;2619;47.868;11.892;2024-01-16T14:35:09;11.13;;;7.00;;
5199;SDS011;2619;47.868;11.892;2024-01-16T14:37:38;9.93;;;6.67;;
5199;SDS011;2619;47.868;11.892;2024-01-16T14:40:04;9.10;;;6.60;;
5199;SDS011;2619;47.868;11.892;2024-01-16T14:42:40;9.93;;;7.63;;
5199;SDS011;2619;47.868;11.892;2024-01-16T14:45:07;10.33;;;6.60;;
5199;SDS011;2619;47.868;11.892;2024-01-16T14:47:37;12.00;;;7.27;;
5199;SDS011;2619;47.868;11.892;2024-01-16T14:50:03;13.87;;;8.00;;
5199;SDS011;2619;47.868;11.892;2024-01-16T14:52:30;11.80;;;7.30;;
5199;SDS011;2619;47.868;11.892;2024-01-16T14:54:58;12.00;;;7.80;;
5199;SDS011;2619;47.868;11.892;2024-01-16T14:57:26;18.30;;;8.03;;
5199;SDS011;2619;47.868;11.892;2024-01-16T14:59:52;9.03;;;7.70;;
5199;SDS011;2619;47.868;11.892;2024-01-16T15:02:18;10.10;;;6.90;;
5199;SDS011;2619;47.868;11.892;2024-01-16T15:04:45;13.07;;;8.30;;